Search for airport 
image banner adimage banner adimage banner ad
image banner ad

CA32 - San Joaquin

Located in San Joaquin, United States

ICAO - CA32, IATA -

Data provided by Airmate  

General information

Coordinates: N36°34'60" W120°15'4"
Elevation is 165 feet MSL.
Magnetic variation is 15° East
View others Airports in California

Operational data

Special qualification required
Current time UTC:
Current local time:
Weather at : KNLC - Lemoore Nas (Reeves Fld) ( 39 km )
METAR: KNLC 212156Z 05005KT 10SM BKN085 BKN140 33/10 A3003 RMK AO2 SLP168 FU BKN085 BKN140 RH/24 T03280100
TAF: TAF KNLC 2115/2215 VRB03KT 9000 HZ FU BKN080 BKN160 QNH3006INS FM211800 02006KT 9000 HZ FU BKN080 BKN160 QNH2995INS TEMPO 2118/2200 04007KT 9999 T37/2123Z T17/2213Z FS30067
View NOTAMs / SUP AIP / TFR affecting this airport [VIEW]
Communications frequencies: [VIEW]

Runways:

RWY identifierQFULength (ft)Width (ft)SurfaceLDA (ft)
15250030OTHER
33250030OTHER

Airport contact information

Address: San Joaquin United States

Satellite view of CA32